createdAt,value
2022-12-28T00:01:26.515Z,41.92
2022-12-28T00:03:54.246Z,41.00
2022-12-28T00:06:23.313Z,39.28
2022-12-28T00:08:53.764Z,39.08
2022-12-28T00:11:28.049Z,39.58
2022-12-28T00:13:59.705Z,38.92
2022-12-28T00:16:26.318Z,39.60
2022-12-28T00:18:54.348Z,40.33
2022-12-28T00:21:21.116Z,37.10
2022-12-28T00:23:52.859Z,38.85
2022-12-28T00:26:20.156Z,38.53
2022-12-28T00:28:48.120Z,38.33
2022-12-28T00:31:15.282Z,39.10
2022-12-28T00:33:42.528Z,37.65
2022-12-28T00:36:12.399Z,38.70
2022-12-28T00:38:39.737Z,38.50
2022-12-28T00:41:07.421Z,37.75
2022-12-28T00:43:34.559Z,40.38
2022-12-28T00:46:01.644Z,41.35
2022-12-28T00:48:28.697Z,39.92
2022-12-28T00:51:07.694Z,42.00
2022-12-28T00:53:34.430Z,39.83
2022-12-28T00:56:06.079Z,40.20
2022-12-28T00:58:33.422Z,39.97
2022-12-28T01:01:00.648Z,39.08
2022-12-28T01:03:27.481Z,39.92
2022-12-28T01:05:54.313Z,40.40
2022-12-28T01:08:21.380Z,40.25
2022-12-28T01:10:48.068Z,38.28
2022-12-28T01:13:14.925Z,37.90
2022-12-28T01:15:41.680Z,38.75
2022-12-28T01:18:08.347Z,38.97
2022-12-28T01:20:35.416Z,35.72
2022-12-28T01:23:02.079Z,38.40
2022-12-28T01:25:28.694Z,36.67
2022-12-28T01:27:55.407Z,35.15
2022-12-28T01:30:22.085Z,35.85
2022-12-28T01:32:48.850Z,37.22
2022-12-28T01:35:15.571Z,37.55
2022-12-28T01:37:42.339Z,38.08
2022-12-28T01:40:13.715Z,35.05
2022-12-28T01:42:41.438Z,38.10
2022-12-28T01:45:18.349Z,35.47
2022-12-28T01:47:47.807Z,35.88
2022-12-28T01:50:19.506Z,36.35
2022-12-28T01:52:55.014Z,35.33
2022-12-28T01:55:25.875Z,37.70
2022-12-28T01:58:05.873Z,38.72
2022-12-28T02:00:33.380Z,36.22
2022-12-28T02:03:14.079Z,35.78
2022-12-28T02:05:46.031Z,35.78
2022-12-28T02:08:31.099Z,34.05
2022-12-28T02:10:57.879Z,35.42
2022-12-28T02:13:26.058Z,35.78
2022-12-28T02:15:52.904Z,36.47
2022-12-28T02:18:21.617Z,36.20
2022-12-28T02:21:09.849Z,35.38
2022-12-28T02:23:39.213Z,36.55
2022-12-28T02:26:36.016Z,35.70
2022-12-28T02:29:54.064Z,33.53
2022-12-28T02:32:31.402Z,34.80
2022-12-28T02:35:05.281Z,36.25
2022-12-28T02:37:38.897Z,35.80
2022-12-28T02:40:11.820Z,34.72
2022-12-28T02:42:40.459Z,35.90
2022-12-28T02:45:45.110Z,34.50
2022-12-28T02:48:30.605Z,34.50
2022-12-28T02:51:23.385Z,35.90
2022-12-28T02:53:55.989Z,34.95
2022-12-28T02:56:51.496Z,34.63
2022-12-28T02:59:28.970Z,33.80
2022-12-28T03:02:27.489Z,34.47
2022-12-28T03:05:41.425Z,35.70
2022-12-28T03:08:22.704Z,33.97
2022-12-28T03:11:09.639Z,35.20
2022-12-28T03:13:56.304Z,34.75
2022-12-28T03:16:29.339Z,35.72
2022-12-28T03:19:21.721Z,34.45
2022-12-28T03:22:08.788Z,34.75
2022-12-28T03:24:56.271Z,34.83
2022-12-28T03:27:41.801Z,34.35
2022-12-28T03:30:32.356Z,34.42
2022-12-28T03:32:59.694Z,34.17
2022-12-28T03:36:16.500Z,36.10
2022-12-28T03:38:43.196Z,35.50
2022-12-28T03:41:16.037Z,34.22
2022-12-28T03:43:51.144Z,36.90
2022-12-28T03:46:29.700Z,36.70
2022-12-28T03:48:59.383Z,35.72
2022-12-28T03:51:28.331Z,36.65
2022-12-28T03:53:55.737Z,35.33
2022-12-28T03:56:25.707Z,34.25
2022-12-28T03:58:52.987Z,35.03
2022-12-28T04:01:20.508Z,34.63
2022-12-28T04:03:47.800Z,35.08
2022-12-28T04:06:16.586Z,35.75
2022-12-28T04:08:44.587Z,34.97
2022-12-28T04:11:12.345Z,34.38
2022-12-28T04:13:39.275Z,34.47
2022-12-28T04:16:09.103Z,34.22
2022-12-28T04:18:36.080Z,34.95
2022-12-28T04:21:03.519Z,33.33
2022-12-28T04:23:32.076Z,35.58
2022-12-28T04:26:02.932Z,34.03
2022-12-28T04:28:30.626Z,32.63
2022-12-28T04:30:58.741Z,32.90
2022-12-28T04:33:27.152Z,33.28
2022-12-28T04:35:54.355Z,32.97
2022-12-28T04:38:21.451Z,34.45
2022-12-28T04:40:48.156Z,33.08
2022-12-28T04:43:14.846Z,31.88
2022-12-28T04:45:41.554Z,32.42
2022-12-28T04:48:08.361Z,34.47
2022-12-28T04:50:36.862Z,33.65
2022-12-28T04:53:03.629Z,33.53
2022-12-28T04:55:32.995Z,31.23
2022-12-28T04:58:00.599Z,31.13
2022-12-28T05:00:27.462Z,31.20
2022-12-28T05:02:54.677Z,33.42
2022-12-28T05:05:21.469Z,31.52
2022-12-28T05:07:48.267Z,31.33
2022-12-28T05:10:15.186Z,32.13
2022-12-28T05:12:41.926Z,32.45
2022-12-28T05:15:09.097Z,32.63
2022-12-28T05:17:36.291Z,32.25
2022-12-28T05:20:04.382Z,30.95
2022-12-28T05:22:34.997Z,31.13
2022-12-28T05:25:04.812Z,30.55
2022-12-28T05:27:31.569Z,30.83
2022-12-28T05:29:58.278Z,31.40
2022-12-28T05:32:24.942Z,31.63
2022-12-28T05:34:51.610Z,30.95
2022-12-28T05:37:21.957Z,29.83
2022-12-28T05:39:49.046Z,31.77
2022-12-28T05:42:15.740Z,30.20
2022-12-28T05:44:42.542Z,32.10
2022-12-28T05:47:09.287Z,30.88
2022-12-28T05:49:36.007Z,30.25
2022-12-28T05:52:02.720Z,29.23
2022-12-28T05:54:29.405Z,30.92
2022-12-28T05:56:56.140Z,30.02
2022-12-28T05:59:22.815Z,32.30
2022-12-28T06:01:49.743Z,31.00
2022-12-28T06:04:19.070Z,31.35
2022-12-28T06:06:47.428Z,30.02
2022-12-28T06:09:14.971Z,29.95
2022-12-28T06:11:41.992Z,29.33
2022-12-28T06:14:09.091Z,30.02
2022-12-28T06:16:38.713Z,31.05
2022-12-28T06:19:11.149Z,30.05
2022-12-28T06:21:40.554Z,29.42
2022-12-28T06:24:09.069Z,30.45
2022-12-28T06:26:37.652Z,30.90
2022-12-28T06:29:04.848Z,31.10
2022-12-28T06:31:34.445Z,30.02
2022-12-28T06:34:02.787Z,31.48
2022-12-28T06:36:32.657Z,28.17
2022-12-28T06:39:00.553Z,30.90
2022-12-28T06:41:28.640Z,31.63
2022-12-28T06:43:56.332Z,29.20
2022-12-28T06:46:24.940Z,30.25
2022-12-28T06:48:51.978Z,31.15
2022-12-28T06:51:21.692Z,29.27
2022-12-28T06:53:50.032Z,31.08
2022-12-28T06:56:18.559Z,28.98
2022-12-28T06:58:46.620Z,27.58
2022-12-28T07:01:17.862Z,27.60
2022-12-28T07:03:46.008Z,28.00
2022-12-28T07:06:14.182Z,28.20
2022-12-28T07:08:41.268Z,27.63
2022-12-28T07:11:19.790Z,28.48
2022-12-28T07:13:46.826Z,26.52
2022-12-28T07:16:15.650Z,29.52
2022-12-28T07:18:42.723Z,27.42
2022-12-28T07:21:16.787Z,29.98
2022-12-28T07:23:43.652Z,27.20
2022-12-28T07:26:20.528Z,27.13
2022-12-28T07:28:48.969Z,28.75
2022-12-28T07:31:21.404Z,27.73
2022-12-28T07:33:49.345Z,27.13
2022-12-28T07:36:18.105Z,27.48
2022-12-28T07:38:44.896Z,26.63
2022-12-28T07:41:13.033Z,27.08
2022-12-28T07:43:40.227Z,27.33
2022-12-28T07:46:08.764Z,26.40
2022-12-28T07:48:37.136Z,26.73
2022-12-28T07:51:08.433Z,24.75
2022-12-28T07:53:35.130Z,25.15
2022-12-28T07:56:01.971Z,25.15
2022-12-28T07:58:28.721Z,25.48
2022-12-28T08:00:55.658Z,25.10
2022-12-28T08:03:22.728Z,24.27
2022-12-28T08:05:49.524Z,25.60
2022-12-28T08:08:16.335Z,24.58
2022-12-28T08:10:43.252Z,24.40
2022-12-28T08:13:10.080Z,23.88
2022-12-28T08:15:36.788Z,23.77
2022-12-28T08:18:03.690Z,25.23
2022-12-28T08:20:30.459Z,23.20
2022-12-28T08:22:57.319Z,23.98
2022-12-28T08:25:24.096Z,24.75
2022-12-28T08:27:50.945Z,26.80
2022-12-28T08:30:17.760Z,27.00
2022-12-28T08:32:44.577Z,28.13
2022-12-28T08:35:11.519Z,26.77
2022-12-28T08:37:38.284Z,28.20
2022-12-28T08:40:05.752Z,29.92
2022-12-28T08:42:32.545Z,30.58
2022-12-28T08:44:59.304Z,33.38
2022-12-28T08:47:26.340Z,32.58
2022-12-28T08:49:53.043Z,31.90
2022-12-28T08:52:19.708Z,32.13
2022-12-28T08:54:53.427Z,34.63
2022-12-28T08:57:20.160Z,35.63
2022-12-28T08:59:46.890Z,36.00
2022-12-28T09:02:13.854Z,39.00
2022-12-28T09:04:41.111Z,43.22
2022-12-28T09:07:07.771Z,42.55
2022-12-28T09:09:35.175Z,45.50
2022-12-28T09:12:01.941Z,44.60
2022-12-28T09:14:28.716Z,43.40
2022-12-28T09:16:55.522Z,44.67
2022-12-28T09:19:22.680Z,44.70
2022-12-28T09:21:52.274Z,43.45
2022-12-28T09:24:19.285Z,42.38
2022-12-28T09:26:46.127Z,44.83
2022-12-28T09:29:14.145Z,43.75
2022-12-28T09:31:41.815Z,44.35
2022-12-28T09:36:59.533Z,45.88
2022-12-28T09:39:26.310Z,45.80
2022-12-28T09:41:57.697Z,45.92
2022-12-28T09:44:30.332Z,46.75
2022-12-28T09:47:06.759Z,46.45
2022-12-28T09:49:42.066Z,47.13
2022-12-28T09:52:14.316Z,46.75
2022-12-28T09:54:41.851Z,44.45
2022-12-28T09:57:15.210Z,46.58
2022-12-28T09:59:42.775Z,46.03
2022-12-28T10:02:30.142Z,46.08
2022-12-28T10:04:57.218Z,44.78
2022-12-28T10:07:24.231Z,44.05
2022-12-28T10:09:51.377Z,44.75
2022-12-28T10:12:21.292Z,47.63
2022-12-28T10:14:49.432Z,46.45
2022-12-28T10:17:20.361Z,45.97
2022-12-28T10:19:48.280Z,47.95
2022-12-28T10:22:19.767Z,45.17
2022-12-28T10:24:47.861Z,44.75
2022-12-28T10:27:34.788Z,44.83
2022-12-28T10:30:06.678Z,43.53
2022-12-28T10:33:01.758Z,43.95
2022-12-28T10:35:37.325Z,44.13
2022-12-28T10:38:07.625Z,45.03
2022-12-28T10:40:38.070Z,41.90
2022-12-28T10:43:10.542Z,44.80
2022-12-28T10:45:46.186Z,43.08
2022-12-28T10:48:19.996Z,42.78
2022-12-28T10:50:55.581Z,42.40
2022-12-28T10:56:23.972Z,42.38
2022-12-28T10:59:15.042Z,42.33
2022-12-28T11:01:43.650Z,42.45
2022-12-28T11:04:21.398Z,43.20
2022-12-28T11:07:00.384Z,42.63
2022-12-28T11:09:35.287Z,42.40
2022-12-28T11:12:24.599Z,43.10
2022-12-28T11:14:56.307Z,42.88
2022-12-28T11:17:28.571Z,43.65
2022-12-28T11:20:06.194Z,42.40
2022-12-28T11:22:33.826Z,43.10
2022-12-28T11:25:02.568Z,41.67
2022-12-28T11:27:29.468Z,41.80
2022-12-28T11:29:57.464Z,42.08
2022-12-28T11:32:26.098Z,43.65
2022-12-28T11:34:55.378Z,41.97
2022-12-28T11:37:22.141Z,40.83
2022-12-28T11:39:50.859Z,41.63
2022-12-28T11:42:41.249Z,41.33
2022-12-28T11:45:16.865Z,42.63
2022-12-28T11:47:43.743Z,39.63
2022-12-28T11:50:39.599Z,40.63
2022-12-28T11:53:21.310Z,41.70
2022-12-28T11:55:59.576Z,40.72
2022-12-28T11:58:35.785Z,41.63
2022-12-28T12:01:02.680Z,40.35
2022-12-28T12:03:57.278Z,42.92
2022-12-28T12:06:42.478Z,42.85
2022-12-28T12:09:21.552Z,43.20
2022-12-28T12:11:58.944Z,44.60
2022-12-28T12:14:36.323Z,43.70
2022-12-28T12:17:34.754Z,42.58
2022-12-28T12:20:43.146Z,42.47
2022-12-28T12:23:18.794Z,42.25
2022-12-28T12:28:31.347Z,44.47
2022-12-28T12:30:58.810Z,42.65
2022-12-28T12:33:30.480Z,43.00
2022-12-28T12:36:06.170Z,44.63
2022-12-28T12:41:59.767Z,43.55
2022-12-28T12:44:52.477Z,46.22
2022-12-28T12:48:04.480Z,45.53
2022-12-28T12:50:45.537Z,45.33
2022-12-28T12:53:27.307Z,44.65
2022-12-28T12:56:12.472Z,44.15
2022-12-28T12:58:56.196Z,46.43
2022-12-28T13:01:36.937Z,46.88
2022-12-28T13:04:14.750Z,45.15
2022-12-28T13:06:42.813Z,46.10
2022-12-28T13:09:16.951Z,43.75
2022-12-28T13:11:43.951Z,45.95
2022-12-28T13:14:20.034Z,47.05
2022-12-28T13:16:58.239Z,44.28
2022-12-28T13:19:28.151Z,44.08
2022-12-28T13:21:57.879Z,44.03
2022-12-28T13:24:35.177Z,45.42
2022-12-28T13:27:07.668Z,44.10
2022-12-28T13:29:39.951Z,46.58
2022-12-28T13:32:23.228Z,44.83
2022-12-28T13:34:50.890Z,45.67
2022-12-28T13:37:18.985Z,46.47
2022-12-28T13:39:47.854Z,45.55
2022-12-28T13:42:22.078Z,45.28
2022-12-28T13:44:53.722Z,45.33
2022-12-28T13:47:38.488Z,46.75
2022-12-28T13:50:17.397Z,45.05
2022-12-28T13:52:50.554Z,45.13
2022-12-28T13:55:24.938Z,44.67
2022-12-28T13:57:59.764Z,45.67
2022-12-28T14:00:29.841Z,46.53
2022-12-28T14:02:58.673Z,45.55
2022-12-28T14:05:30.326Z,44.80
2022-12-28T14:07:59.429Z,45.63
2022-12-28T14:10:27.312Z,46.50
2022-12-28T14:12:55.018Z,45.63
2022-12-28T14:15:22.586Z,44.33
2022-12-28T14:17:51.437Z,46.38
2022-12-28T14:20:18.434Z,44.15
2022-12-28T14:22:45.431Z,46.10
2022-12-28T14:25:15.376Z,45.40
2022-12-28T14:27:57.034Z,45.22
2022-12-28T14:30:31.220Z,44.88
2022-12-28T14:33:11.565Z,45.35
2022-12-28T14:35:49.029Z,44.33
2022-12-28T14:38:22.814Z,43.25
2022-12-28T14:40:58.376Z,44.92
2022-12-28T14:46:05.021Z,40.60
2022-12-28T14:48:37.492Z,41.72
2022-12-28T14:51:17.627Z,42.85
2022-12-28T14:53:45.517Z,41.88
2022-12-28T14:56:19.580Z,40.53
2022-12-28T14:58:55.262Z,43.97
2022-12-28T15:03:49.348Z,38.15
2022-12-28T15:06:16.468Z,40.90
2022-12-28T15:08:50.926Z,42.15
2022-12-28T15:11:19.260Z,42.53
2022-12-28T15:13:46.562Z,43.88
2022-12-28T15:16:14.375Z,44.88
2022-12-28T15:18:44.985Z,46.53
2022-12-28T15:21:21.165Z,46.83
2022-12-28T15:23:52.544Z,45.47
2022-12-28T15:26:20.004Z,45.75
2022-12-28T15:28:46.800Z,45.30
2022-12-28T15:31:17.177Z,48.33
2022-12-28T15:33:44.863Z,45.05
2022-12-28T15:36:17.587Z,43.42
2022-12-28T15:38:46.574Z,45.95
2022-12-28T15:41:33.054Z,44.88
2022-12-28T15:44:00.111Z,41.58
2022-12-28T15:46:27.004Z,42.85
2022-12-28T15:48:53.668Z,41.85
2022-12-28T15:51:20.612Z,41.85
2022-12-28T15:53:47.348Z,40.88
2022-12-28T15:56:32.772Z,38.55
2022-12-28T15:59:00.849Z,39.05
2022-12-28T16:01:29.685Z,39.72
2022-12-28T16:03:59.185Z,40.67
2022-12-28T16:06:27.862Z,41.42
2022-12-28T16:08:56.638Z,39.67
2022-12-28T16:11:24.112Z,39.65
2022-12-28T16:13:52.872Z,39.70
2022-12-28T16:16:21.279Z,39.45
2022-12-28T16:18:48.693Z,38.90
2022-12-28T16:21:16.196Z,40.83
2022-12-28T16:23:45.225Z,40.85
2022-12-28T16:26:13.680Z,38.33
2022-12-28T16:28:40.593Z,40.53
2022-12-28T16:31:08.427Z,37.88
2022-12-28T16:33:35.684Z,38.92
2022-12-28T16:36:02.358Z,39.70
2022-12-28T16:38:29.250Z,40.15
2022-12-28T16:40:57.149Z,41.45
2022-12-28T16:43:24.272Z,39.55
2022-12-28T16:45:51.120Z,40.33
2022-12-28T16:48:18.388Z,41.40
2022-12-28T16:50:45.101Z,40.13
2022-12-28T16:53:12.732Z,40.55
2022-12-28T16:55:42.242Z,40.95
2022-12-28T16:58:09.867Z,38.92
2022-12-28T17:00:36.713Z,40.65
2022-12-28T17:03:03.776Z,42.58
2022-12-28T17:05:34.986Z,42.70
2022-12-28T17:08:03.039Z,43.22
2022-12-28T17:10:30.538Z,41.92
2022-12-28T17:12:57.821Z,44.90
2022-12-28T17:15:24.811Z,42.60
2022-12-28T17:17:51.642Z,43.55
2022-12-28T17:20:18.631Z,45.40
2022-12-28T17:22:45.363Z,44.55
2022-12-28T17:25:12.189Z,44.45
2022-12-28T17:27:38.886Z,43.90
2022-12-28T17:30:06.042Z,43.75
2022-12-28T17:32:33.653Z,43.03
2022-12-28T17:35:00.344Z,45.25
2022-12-28T17:37:27.103Z,43.95
2022-12-28T17:39:53.890Z,47.17
2022-12-28T17:42:20.656Z,47.35
2022-12-28T17:44:48.528Z,46.85
2022-12-28T17:47:15.472Z,48.50
2022-12-28T17:49:42.465Z,47.95
2022-12-28T17:52:09.369Z,49.47
2022-12-28T17:54:36.182Z,49.05
2022-12-28T17:57:02.913Z,48.33
2022-12-28T17:59:29.861Z,49.63
2022-12-28T18:01:57.304Z,46.72
2022-12-28T18:04:24.146Z,48.60
2022-12-28T18:06:50.856Z,45.53
2022-12-28T18:09:21.109Z,45.58
2022-12-28T18:11:52.366Z,47.20
2022-12-28T18:14:19.453Z,46.67
2022-12-28T18:16:46.141Z,47.08
2022-12-28T18:19:13.156Z,45.10
2022-12-28T18:21:41.586Z,46.20
2022-12-28T18:24:13.068Z,47.80
2022-12-28T18:26:40.041Z,44.83
2022-12-28T18:29:06.960Z,45.55
2022-12-28T18:31:33.948Z,46.58
2022-12-28T18:34:03.332Z,44.40
2022-12-28T18:36:30.282Z,46.17
2022-12-28T18:38:56.961Z,45.78
2022-12-28T18:41:25.542Z,45.80
2022-12-28T18:43:56.949Z,44.60
2022-12-28T18:46:23.778Z,43.08
2022-12-28T18:48:50.516Z,45.05
2022-12-28T18:51:18.404Z,44.55
2022-12-28T18:53:45.785Z,43.95
2022-12-28T18:56:18.575Z,45.88
2022-12-28T18:58:49.653Z,41.75
2022-12-28T19:01:55.998Z,43.60
2022-12-28T19:04:10.328Z,43.30
2022-12-28T19:06:38.010Z,42.55
2022-12-28T19:09:06.821Z,42.50
2022-12-28T19:11:34.309Z,43.03
2022-12-28T19:14:03.067Z,43.20
2022-12-28T19:16:31.904Z,43.65
2022-12-28T19:19:00.181Z,44.55
2022-12-28T19:21:30.912Z,43.70
2022-12-28T19:24:03.312Z,43.60
2022-12-28T19:26:31.485Z,43.10
2022-12-28T19:28:58.682Z,44.40
2022-12-28T19:31:26.011Z,41.80
2022-12-28T19:33:52.890Z,43.60
2022-12-28T19:36:19.878Z,46.35
2022-12-28T19:38:47.016Z,43.85
2022-12-28T19:41:15.519Z,44.67
2022-12-28T19:43:43.818Z,41.67
2022-12-28T19:46:12.765Z,41.97
2022-12-28T19:48:39.722Z,39.80
2022-12-28T19:51:07.037Z,41.40
2022-12-28T19:53:34.176Z,40.83
2022-12-28T19:56:16.275Z,42.70
2022-12-28T19:58:44.653Z,40.67
2022-12-28T20:01:14.281Z,41.88
2022-12-28T20:03:42.087Z,41.40
2022-12-28T20:06:18.299Z,41.03
2022-12-28T20:08:46.628Z,39.90
2022-12-28T20:11:13.680Z,40.83
2022-12-28T20:13:41.126Z,39.53
2022-12-28T20:16:09.201Z,41.83
2022-12-28T20:18:36.251Z,40.10
2022-12-28T20:21:21.979Z,41.08
2022-12-28T20:26:17.571Z,40.53
2022-12-28T20:28:44.970Z,39.67
2022-12-28T20:31:14.120Z,40.15
2022-12-28T20:33:42.000Z,40.38
2022-12-28T20:36:12.354Z,41.85
2022-12-28T20:38:39.352Z,40.58
2022-12-28T20:41:32.165Z,40.53
2022-12-28T20:44:00.412Z,41.60
2022-12-28T20:46:27.854Z,43.10
2022-12-28T20:48:55.007Z,41.90
2022-12-28T20:51:21.746Z,40.47
2022-12-28T20:53:48.639Z,40.42
2022-12-28T20:56:15.400Z,41.85
2022-12-28T20:58:42.177Z,40.95
2022-12-28T21:01:11.865Z,40.55
2022-12-28T21:03:39.305Z,40.95
2022-12-28T21:06:06.772Z,42.72
2022-12-28T21:08:33.708Z,41.55
2022-12-28T21:11:01.158Z,41.70
2022-12-28T21:13:28.397Z,41.38
2022-12-28T21:15:55.683Z,42.95
2022-12-28T21:18:23.161Z,42.78
2022-12-28T21:20:55.494Z,43.75
2022-12-28T21:23:22.763Z,42.33
2022-12-28T21:25:49.792Z,43.65
2022-12-28T21:28:16.660Z,41.88
2022-12-28T21:30:43.387Z,40.60
2022-12-28T21:33:10.528Z,41.85
2022-12-28T21:35:37.290Z,42.17
2022-12-28T21:38:05.190Z,43.45
2022-12-28T21:40:32.269Z,42.47
2022-12-28T21:42:58.955Z,42.97
2022-12-28T21:45:25.732Z,41.05
2022-12-28T21:47:52.723Z,42.92
2022-12-28T21:50:19.539Z,40.63
2022-12-28T21:52:46.383Z,41.90
2022-12-28T21:55:31.529Z,40.60
2022-12-28T21:57:59.756Z,39.97
2022-12-28T22:00:45.351Z,40.22
2022-12-28T22:03:30.541Z,41.83
2022-12-28T22:06:06.172Z,42.97
2022-12-28T22:11:38.559Z,38.70
2022-12-28T22:14:06.278Z,39.88
2022-12-28T22:16:34.445Z,42.50
2022-12-28T22:19:03.894Z,39.55
2022-12-28T22:21:31.408Z,42.90
2022-12-28T22:23:58.208Z,42.08
2022-12-28T22:26:25.289Z,43.25
2022-12-28T22:28:52.062Z,43.88
2022-12-28T22:31:18.866Z,43.45
2022-12-28T22:33:46.155Z,40.50
2022-12-28T22:36:15.524Z,43.60
2022-12-28T22:38:42.289Z,41.97
2022-12-28T22:41:09.081Z,43.75
2022-12-28T22:43:35.891Z,42.45
2022-12-28T22:46:11.373Z,42.88
2022-12-28T22:48:38.578Z,43.42
2022-12-28T22:51:10.886Z,44.75
2022-12-28T22:53:38.045Z,44.20
2022-12-28T22:56:07.866Z,43.25
2022-12-28T22:58:34.617Z,45.97
2022-12-28T23:01:08.359Z,43.95
2022-12-28T23:03:38.569Z,42.35
2022-12-28T23:06:06.687Z,44.40
2022-12-28T23:08:33.783Z,44.80
2022-12-28T23:11:02.758Z,44.28
2022-12-28T23:13:32.093Z,43.67
2022-12-28T23:16:02.323Z,44.20
2022-12-28T23:18:48.301Z,45.45
2022-12-28T23:21:39.917Z,44.63
2022-12-28T23:24:30.465Z,45.53
2022-12-28T23:27:17.192Z,44.25
2022-12-28T23:29:44.555Z,44.47
2022-12-28T23:32:11.516Z,44.17
2022-12-28T23:34:38.217Z,44.50
2022-12-28T23:37:04.980Z,43.47
2022-12-28T23:39:31.737Z,43.15
2022-12-28T23:41:58.525Z,43.33
2022-12-28T23:44:26.491Z,45.53
2022-12-28T23:46:59.023Z,44.38
2022-12-28T23:49:27.056Z,44.10
2022-12-28T23:51:53.882Z,44.58
2022-12-28T23:54:21.048Z,42.42
2022-12-28T23:56:51.821Z,44.38
2022-12-28T23:59:18.490Z,42.03
